Terminal Aerodrome Forecast
Issued by NWS

Home | Current Version | Previous Version | Text Only | Print | Product List | Glossary On
Versions: 1 2 3 4 5 6 7 8 9 10 11 12 13 14 15 16 17 18 19 20
000
FTUS45 KBOU 171736
TAFAPA
TAF
KAPA 171736Z 1718/1818 VRB05KT P6SM FEW220
     FM172100 05006KT P6SM SCT220
     FM180200 17008KT P6SM SCT220
     FM180900 21008KT P6SM FEW220
     FM181700 31012KT P6SM FEW220=

USA.gov is the U.S. government's official web portal to all federal, state and local government web resources and services.